sensor_id;sensor_type;location;lat;lon;timestamp;temperature;humidity
21602;DHT22;10963;50.934;4.668;2023-05-07T00:01:40;17.60;99.90
21602;DHT22;10963;50.934;4.668;2023-05-07T00:04:06;17.60;99.90
21602;DHT22;10963;50.934;4.668;2023-05-07T00:06:34;17.70;99.90
21602;DHT22;10963;50.934;4.668;2023-05-07T00:09:02;17.70;99.90
21602;DHT22;10963;50.934;4.668;2023-05-07T00:11:31;17.70;99.90
21602;DHT22;10963;50.934;4.668;2023-05-07T00:14:01;17.70;99.90
21602;DHT22;10963;50.934;4.668;2023-05-07T00:16:27;17.60;99.90
21602;DHT22;10963;50.934;4.668;2023-05-07T00:18:53;17.60;99.90
21602;DHT22;10963;50.934;4.668;2023-05-07T00:21:21;17.70;99.90
21602;DHT22;10963;50.934;4.668;2023-05-07T00:23:47;17.60;99.90
21602;DHT22;10963;50.934;4.668;2023-05-07T00:26:15;17.60;99.90
21602;DHT22;10963;50.934;4.668;2023-05-07T00:28:43;17.60;99.90
21602;DHT22;10963;50.934;4.668;2023-05-07T00:31:11;17.50;99.90
21602;DHT22;10963;50.934;4.668;2023-05-07T00:33:38;17.60;99.90
21602;DHT22;10963;50.934;4.668;2023-05-07T00:36:04;17.50;99.90
21602;DHT22;10963;50.934;4.668;2023-05-07T00:38:29;17.40;99.90
21602;DHT22;10963;50.934;4.668;2023-05-07T00:40:55;17.40;99.90
21602;DHT22;10963;50.934;4.668;2023-05-07T00:43:23;17.40;99.90
21602;DHT22;10963;50.934;4.668;2023-05-07T00:45:49;17.40;99.90
21602;DHT22;10963;50.934;4.668;2023-05-07T00:48:15;17.30;99.90
21602;DHT22;10963;50.934;4.668;2023-05-07T00:50:41;17.30;99.90
21602;DHT22;10963;50.934;4.668;2023-05-07T00:53:09;17.30;99.90
21602;DHT22;10963;50.934;4.668;2023-05-07T00:55:35;17.30;99.90
21602;DHT22;10963;50.934;4.668;2023-05-07T00:58:06;17.30;99.90
21602;DHT22;10963;50.934;4.668;2023-05-07T01:00:32;17.30;99.90
21602;DHT22;10963;50.934;4.668;2023-05-07T01:02:58;17.20;99.90
21602;DHT22;10963;50.934;4.668;2023-05-07T01:05:27;17.10;99.90
21602;DHT22;10963;50.934;4.668;2023-05-07T01:07:54;17.10;99.90
21602;DHT22;10963;50.934;4.668;2023-05-07T01:10:20;17.10;99.90
21602;DHT22;10963;50.934;4.668;2023-05-07T01:12:46;17.20;99.90
21602;DHT22;10963;50.934;4.668;2023-05-07T01:15:12;17.20;99.90
21602;DHT22;10963;50.934;4.668;2023-05-07T01:17:42;17.20;99.90
21602;DHT22;10963;50.934;4.668;2023-05-07T01:20:08;17.20;99.90
21602;DHT22;10963;50.934;4.668;2023-05-07T01:22:38;17.20;99.90
21602;DHT22;10963;50.934;4.668;2023-05-07T01:25:07;17.20;99.90
21602;DHT22;10963;50.934;4.668;2023-05-07T01:27:33;17.20;99.90
21602;DHT22;10963;50.934;4.668;2023-05-07T01:30:03;17.10;99.90
21602;DHT22;10963;50.934;4.668;2023-05-07T01:32:43;17.10;99.90
21602;DHT22;10963;50.934;4.668;2023-05-07T01:35:20;17.10;99.90
21602;DHT22;10963;50.934;4.668;2023-05-07T01:37:48;17.10;99.90
21602;DHT22;10963;50.934;4.668;2023-05-07T01:40:14;17.00;99.90
21602;DHT22;10963;50.934;4.668;2023-05-07T01:42:44;17.00;99.90
21602;DHT22;10963;50.934;4.668;2023-05-07T01:45:11;17.00;99.90
21602;DHT22;10963;50.934;4.668;2023-05-07T01:47:37;17.00;99.90
21602;DHT22;10963;50.934;4.668;2023-05-07T01:50:05;17.10;99.90
21602;DHT22;10963;50.934;4.668;2023-05-07T01:52:31;17.10;99.90
21602;DHT22;10963;50.934;4.668;2023-05-07T01:54:57;17.10;99.90
21602;DHT22;10963;50.934;4.668;2023-05-07T01:57:23;17.20;99.90
21602;DHT22;10963;50.934;4.668;2023-05-07T01:59:51;17.20;99.90
21602;DHT22;10963;50.934;4.668;2023-05-07T02:02:19;17.10;99.90
21602;DHT22;10963;50.934;4.668;2023-05-07T02:04:45;17.00;99.90
21602;DHT22;10963;50.934;4.668;2023-05-07T02:07:13;17.00;99.90
21602;DHT22;10963;50.934;4.668;2023-05-07T02:09:39;17.00;99.90
21602;DHT22;10963;50.934;4.668;2023-05-07T02:12:04;17.00;99.90
21602;DHT22;10963;50.934;4.668;2023-05-07T02:14:30;17.00;99.90
21602;DHT22;10963;50.934;4.668;2023-05-07T02:16:56;17.00;99.90
21602;DHT22;10963;50.934;4.668;2023-05-07T02:19:24;17.00;99.90
21602;DHT22;10963;50.934;4.668;2023-05-07T02:21:54;17.00;99.90
21602;DHT22;10963;50.934;4.668;2023-05-07T02:24:23;17.00;99.90
21602;DHT22;10963;50.934;4.668;2023-05-07T02:26:48;17.00;99.90
21602;DHT22;10963;50.934;4.668;2023-05-07T02:29:14;17.00;99.90
21602;DHT22;10963;50.934;4.668;2023-05-07T02:31:42;17.00;99.90
21602;DHT22;10963;50.934;4.668;2023-05-07T02:34:15;17.00;99.90
21602;DHT22;10963;50.934;4.668;2023-05-07T02:36:45;17.00;99.90
21602;DHT22;10963;50.934;4.668;2023-05-07T02:39:14;17.00;99.90
21602;DHT22;10963;50.934;4.668;2023-05-07T02:41:40;16.90;99.90
21602;DHT22;10963;50.934;4.668;2023-05-07T02:44:06;16.90;99.90
21602;DHT22;10963;50.934;4.668;2023-05-07T02:46:34;16.90;99.90
21602;DHT22;10963;50.934;4.668;2023-05-07T02:49:00;16.90;99.90
21602;DHT22;10963;50.934;4.668;2023-05-07T02:51:30;16.80;99.90
21602;DHT22;10963;50.934;4.668;2023-05-07T02:53:56;16.80;99.90
21602;DHT22;10963;50.934;4.668;2023-05-07T02:56:21;16.80;99.90
21602;DHT22;10963;50.934;4.668;2023-05-07T02:58:50;16.70;99.90
21602;DHT22;10963;50.934;4.668;2023-05-07T03:01:15;16.70;99.90
21602;DHT22;10963;50.934;4.668;2023-05-07T03:03:43;16.80;99.90
21602;DHT22;10963;50.934;4.668;2023-05-07T03:06:09;16.80;99.90
21602;DHT22;10963;50.934;4.668;2023-05-07T03:08:35;16.70;99.90
21602;DHT22;10963;50.934;4.668;2023-05-07T03:11:06;16.60;99.90
21602;DHT22;10963;50.934;4.668;2023-05-07T03:13:31;16.60;99.90
21602;DHT22;10963;50.934;4.668;2023-05-07T03:16:00;16.60;99.90
21602;DHT22;10963;50.934;4.668;2023-05-07T03:18:25;16.60;99.90
21602;DHT22;10963;50.934;4.668;2023-05-07T03:20:51;16.70;99.90
21602;DHT22;10963;50.934;4.668;2023-05-07T03:23:19;16.70;99.90
21602;DHT22;10963;50.934;4.668;2023-05-07T03:25:45;16.70;99.90
21602;DHT22;10963;50.934;4.668;2023-05-07T03:28:11;16.70;99.90
21602;DHT22;10963;50.934;4.668;2023-05-07T03:30:36;16.70;99.90
21602;DHT22;10963;50.934;4.668;2023-05-07T03:33:07;16.70;99.90
21602;DHT22;10963;50.934;4.668;2023-05-07T03:35:32;16.70;99.90
21602;DHT22;10963;50.934;4.668;2023-05-07T03:37:58;16.80;99.90
21602;DHT22;10963;50.934;4.668;2023-05-07T03:40:24;16.80;99.90
21602;DHT22;10963;50.934;4.668;2023-05-07T03:42:54;16.70;99.90
21602;DHT22;10963;50.934;4.668;2023-05-07T03:45:22;16.70;99.90
21602;DHT22;10963;50.934;4.668;2023-05-07T03:47:47;16.70;99.90
21602;DHT22;10963;50.934;4.668;2023-05-07T03:50:15;16.70;99.90
21602;DHT22;10963;50.934;4.668;2023-05-07T03:52:43;16.80;99.90
21602;DHT22;10963;50.934;4.668;2023-05-07T03:55:10;16.80;99.90
21602;DHT22;10963;50.934;4.668;2023-05-07T03:57:36;16.80;99.90
21602;DHT22;10963;50.934;4.668;2023-05-07T04:00:02;16.80;99.90
21602;DHT22;10963;50.934;4.668;2023-05-07T04:02:35;16.80;99.90
21602;DHT22;10963;50.934;4.668;2023-05-07T04:05:03;16.70;99.90
21602;DHT22;10963;50.934;4.668;2023-05-07T04:07:31;16.60;99.90
21602;DHT22;10963;50.934;4.668;2023-05-07T04:09:59;16.70;99.90
21602;DHT22;10963;50.934;4.668;2023-05-07T04:12:32;16.80;99.90
21602;DHT22;10963;50.934;4.668;2023-05-07T04:14:58;16.80;99.90
21602;DHT22;10963;50.934;4.668;2023-05-07T04:17:23;16.80;99.90
21602;DHT22;10963;50.934;4.668;2023-05-07T04:19:49;16.90;99.90
21602;DHT22;10963;50.934;4.668;2023-05-07T04:22:15;16.90;99.90
21602;DHT22;10963;50.934;4.668;2023-05-07T04:24:40;16.80;99.90
21602;DHT22;10963;50.934;4.668;2023-05-07T04:27:06;16.70;99.90
21602;DHT22;10963;50.934;4.668;2023-05-07T04:29:32;16.70;99.90
21602;DHT22;10963;50.934;4.668;2023-05-07T04:31:57;16.70;99.90
21602;DHT22;10963;50.934;4.668;2023-05-07T04:34:24;16.80;99.90
21602;DHT22;10963;50.934;4.668;2023-05-07T04:36:49;16.90;99.90
21602;DHT22;10963;50.934;4.668;2023-05-07T04:39:17;16.80;99.90
21602;DHT22;10963;50.934;4.668;2023-05-07T04:41:45;16.80;99.90
21602;DHT22;10963;50.934;4.668;2023-05-07T04:44:13;16.80;99.90
21602;DHT22;10963;50.934;4.668;2023-05-07T04:46:39;16.80;99.90
21602;DHT22;10963;50.934;4.668;2023-05-07T04:49:05;16.90;99.90
21602;DHT22;10963;50.934;4.668;2023-05-07T04:51:31;17.00;99.90
21602;DHT22;10963;50.934;4.668;2023-05-07T04:54:00;17.00;99.90
21602;DHT22;10963;50.934;4.668;2023-05-07T04:56:29;16.90;99.90
21602;DHT22;10963;50.934;4.668;2023-05-07T04:59:00;17.00;99.90
21602;DHT22;10963;50.934;4.668;2023-05-07T05:01:26;17.00;99.90
21602;DHT22;10963;50.934;4.668;2023-05-07T05:03:51;17.00;99.90
21602;DHT22;10963;50.934;4.668;2023-05-07T05:06:17;17.00;99.90
21602;DHT22;10963;50.934;4.668;2023-05-07T05:08:43;17.10;99.90
21602;DHT22;10963;50.934;4.668;2023-05-07T05:11:08;17.20;99.90
21602;DHT22;10963;50.934;4.668;2023-05-07T05:13:34;17.30;99.90
21602;DHT22;10963;50.934;4.668;2023-05-07T05:16:00;17.30;99.90
21602;DHT22;10963;50.934;4.668;2023-05-07T05:18:28;17.40;99.90
21602;DHT22;10963;50.934;4.668;2023-05-07T05:20:53;17.50;99.90
21602;DHT22;10963;50.934;4.668;2023-05-07T05:23:19;17.60;99.90
21602;DHT22;10963;50.934;4.668;2023-05-07T05:25:47;17.60;99.90
21602;DHT22;10963;50.934;4.668;2023-05-07T05:28:15;17.50;99.90
21602;DHT22;10963;50.934;4.668;2023-05-07T05:30:41;17.50;99.90
21602;DHT22;10963;50.934;4.668;2023-05-07T05:33:06;17.50;99.90
21602;DHT22;10963;50.934;4.668;2023-05-07T05:35:32;17.40;99.90
21602;DHT22;10963;50.934;4.668;2023-05-07T05:38:00;17.50;99.90
21602;DHT22;10963;50.934;4.668;2023-05-07T05:40:28;17.50;99.90
21602;DHT22;10963;50.934;4.668;2023-05-07T05:42:54;17.60;99.90
21602;DHT22;10963;50.934;4.668;2023-05-07T05:45:20;17.70;99.90
21602;DHT22;10963;50.934;4.668;2023-05-07T05:47:45;17.80;99.90
21602;DHT22;10963;50.934;4.668;2023-05-07T05:50:14;17.80;99.90
21602;DHT22;10963;50.934;4.668;2023-05-07T05:52:39;17.80;99.90
21602;DHT22;10963;50.934;4.668;2023-05-07T05:55:06;18.00;99.90
21602;DHT22;10963;50.934;4.668;2023-05-07T05:57:32;18.10;99.90
21602;DHT22;10963;50.934;4.668;2023-05-07T05:59:58;18.20;99.90
21602;DHT22;10963;50.934;4.668;2023-05-07T06:02:26;18.30;99.90
21602;DHT22;10963;50.934;4.668;2023-05-07T06:04:52;18.30;99.90
21602;DHT22;10963;50.934;4.668;2023-05-07T06:07:18;18.30;99.90
21602;DHT22;10963;50.934;4.668;2023-05-07T06:09:46;18.50;99.90
21602;DHT22;10963;50.934;4.668;2023-05-07T06:12:14;18.70;99.90
21602;DHT22;10963;50.934;4.668;2023-05-07T06:14:43;18.70;99.90
21602;DHT22;10963;50.934;4.668;2023-05-07T06:17:08;18.80;99.90
21602;DHT22;10963;50.934;4.668;2023-05-07T06:19:37;18.90;99.90
21602;DHT22;10963;50.934;4.668;2023-05-07T06:22:05;18.90;99.90
21602;DHT22;10963;50.934;4.668;2023-05-07T06:24:33;18.90;99.90
21602;DHT22;10963;50.934;4.668;2023-05-07T06:26:59;18.90;99.90
21602;DHT22;10963;50.934;4.668;2023-05-07T06:29:25;19.00;99.90
21602;DHT22;10963;50.934;4.668;2023-05-07T06:32:09;19.00;99.90
21602;DHT22;10963;50.934;4.668;2023-05-07T06:34:35;19.00;99.90
21602;DHT22;10963;50.934;4.668;2023-05-07T06:37:04;19.00;99.90
21602;DHT22;10963;50.934;4.668;2023-05-07T06:39:30;19.00;99.90
21602;DHT22;10963;50.934;4.668;2023-05-07T06:41:56;19.00;99.90
21602;DHT22;10963;50.934;4.668;2023-05-07T06:44:22;19.00;99.90
21602;DHT22;10963;50.934;4.668;2023-05-07T06:46:50;19.10;99.90
21602;DHT22;10963;50.934;4.668;2023-05-07T06:49:16;19.10;99.90
21602;DHT22;10963;50.934;4.668;2023-05-07T06:51:42;19.00;99.90
21602;DHT22;10963;50.934;4.668;2023-05-07T06:54:10;18.90;99.90
21602;DHT22;10963;50.934;4.668;2023-05-07T06:56:38;18.80;99.90
21602;DHT22;10963;50.934;4.668;2023-05-07T06:59:04;18.80;99.90
21602;DHT22;10963;50.934;4.668;2023-05-07T07:01:29;18.70;99.90
21602;DHT22;10963;50.934;4.668;2023-05-07T07:03:55;18.60;99.90
21602;DHT22;10963;50.934;4.668;2023-05-07T07:06:23;18.50;99.90
21602;DHT22;10963;50.934;4.668;2023-05-07T07:08:49;18.50;99.90
21602;DHT22;10963;50.934;4.668;2023-05-07T07:11:15;18.50;99.90
21602;DHT22;10963;50.934;4.668;2023-05-07T07:13:43;18.60;99.90
21602;DHT22;10963;50.934;4.668;2023-05-07T07:16:09;18.70;99.90
21602;DHT22;10963;50.934;4.668;2023-05-07T07:18:34;18.80;99.90
21602;DHT22;10963;50.934;4.668;2023-05-07T07:21:01;18.90;99.90
21602;DHT22;10963;50.934;4.668;2023-05-07T07:23:26;19.10;99.90
21602;DHT22;10963;50.934;4.668;2023-05-07T07:25:52;19.20;99.90
21602;DHT22;10963;50.934;4.668;2023-05-07T07:28:20;19.30;99.90
21602;DHT22;10963;50.934;4.668;2023-05-07T07:30:46;19.40;99.90
21602;DHT22;10963;50.934;4.668;2023-05-07T07:33:15;19.40;99.90
21602;DHT22;10963;50.934;4.668;2023-05-07T07:35:42;19.40;99.90
21602;DHT22;10963;50.934;4.668;2023-05-07T07:38:08;19.40;99.90
21602;DHT22;10963;50.934;4.668;2023-05-07T07:40:37;19.50;99.90
21602;DHT22;10963;50.934;4.668;2023-05-07T07:43:03;19.50;99.90
21602;DHT22;10963;50.934;4.668;2023-05-07T07:45:28;19.70;99.90
21602;DHT22;10963;50.934;4.668;2023-05-07T07:47:56;19.70;99.90
21602;DHT22;10963;50.934;4.668;2023-05-07T07:50:22;19.70;99.90
21602;DHT22;10963;50.934;4.668;2023-05-07T07:52:48;19.60;99.90
21602;DHT22;10963;50.934;4.668;2023-05-07T07:55:14;19.50;99.90
21602;DHT22;10963;50.934;4.668;2023-05-07T07:57:45;19.50;99.90
21602;DHT22;10963;50.934;4.668;2023-05-07T08:00:11;19.50;99.90
21602;DHT22;10963;50.934;4.668;2023-05-07T08:02:38;19.50;99.90
21602;DHT22;10963;50.934;4.668;2023-05-07T08:05:04;19.60;99.90
21602;DHT22;10963;50.934;4.668;2023-05-07T08:07:30;19.80;99.90
21602;DHT22;10963;50.934;4.668;2023-05-07T08:09:56;19.90;99.90
21602;DHT22;10963;50.934;4.668;2023-05-07T08:12:24;19.70;99.90
21602;DHT22;10963;50.934;4.668;2023-05-07T08:14:50;19.50;99.90
21602;DHT22;10963;50.934;4.668;2023-05-07T08:17:18;19.40;99.90
21602;DHT22;10963;50.934;4.668;2023-05-07T08:19:44;19.30;99.90
21602;DHT22;10963;50.934;4.668;2023-05-07T08:22:10;19.30;99.90
21602;DHT22;10963;50.934;4.668;2023-05-07T08:24:36;19.10;99.90
21602;DHT22;10963;50.934;4.668;2023-05-07T08:27:02;19.00;99.90
21602;DHT22;10963;50.934;4.668;2023-05-07T08:29:27;19.00;99.90
21602;DHT22;10963;50.934;4.668;2023-05-07T08:31:53;18.80;99.90
21602;DHT22;10963;50.934;4.668;2023-05-07T08:34:19;18.80;99.90
21602;DHT22;10963;50.934;4.668;2023-05-07T08:36:45;18.80;99.90
21602;DHT22;10963;50.934;4.668;2023-05-07T08:39:15;18.80;99.90
21602;DHT22;10963;50.934;4.668;2023-05-07T08:41:48;18.90;99.90
21602;DHT22;10963;50.934;4.668;2023-05-07T08:44:21;19.20;99.90
21602;DHT22;10963;50.934;4.668;2023-05-07T08:46:52;19.30;99.90
21602;DHT22;10963;50.934;4.668;2023-05-07T08:49:22;19.50;99.90
21602;DHT22;10963;50.934;4.668;2023-05-07T08:51:50;19.70;99.90
21602;DHT22;10963;50.934;4.668;2023-05-07T08:54:17;19.80;99.90
21602;DHT22;10963;50.934;4.668;2023-05-07T08:56:43;19.90;99.90
21602;DHT22;10963;50.934;4.668;2023-05-07T08:59:09;19.90;99.90
21602;DHT22;10963;50.934;4.668;2023-05-07T09:01:35;19.90;99.90
21602;DHT22;10963;50.934;4.668;2023-05-07T09:04:04;19.60;99.90
21602;DHT22;10963;50.934;4.668;2023-05-07T09:06:31;19.60;99.90
21602;DHT22;10963;50.934;4.668;2023-05-07T09:08:57;19.50;99.90
21602;DHT22;10963;50.934;4.668;2023-05-07T09:11:24;19.40;99.90
21602;DHT22;10963;50.934;4.668;2023-05-07T09:13:54;19.40;99.90
21602;DHT22;10963;50.934;4.668;2023-05-07T09:16:24;19.40;99.90
21602;DHT22;10963;50.934;4.668;2023-05-07T09:18:53;19.40;99.90
21602;DHT22;10963;50.934;4.668;2023-05-07T09:21:22;19.70;99.90
21602;DHT22;10963;50.934;4.668;2023-05-07T09:23:53;19.80;99.90
21602;DHT22;10963;50.934;4.668;2023-05-07T09:26:24;20.00;99.90
21602;DHT22;10963;50.934;4.668;2023-05-07T09:28:50;20.10;99.90
21602;DHT22;10963;50.934;4.668;2023-05-07T09:31:18;20.10;99.90
21602;DHT22;10963;50.934;4.668;2023-05-07T09:33:46;20.20;99.90
21602;DHT22;10963;50.934;4.668;2023-05-07T09:36:12;20.20;99.90
21602;DHT22;10963;50.934;4.668;2023-05-07T09:38:38;20.10;99.90
21602;DHT22;10963;50.934;4.668;2023-05-07T09:41:08;20.30;99.90
21602;DHT22;10963;50.934;4.668;2023-05-07T09:43:38;20.40;99.90
21602;DHT22;10963;50.934;4.668;2023-05-07T09:48:41;20.40;99.90
21602;DHT22;10963;50.934;4.668;2023-05-07T09:51:22;20.40;99.90
21602;DHT22;10963;50.934;4.668;2023-05-07T09:53:53;20.30;99.90
21602;DHT22;10963;50.934;4.668;2023-05-07T09:56:22;20.20;99.90
21602;DHT22;10963;50.934;4.668;2023-05-07T09:58:48;20.20;99.90
21602;DHT22;10963;50.934;4.668;2023-05-07T10:01:17;20.20;99.90
21602;DHT22;10963;50.934;4.668;2023-05-07T10:03:47;20.20;99.90
21602;DHT22;10963;50.934;4.668;2023-05-07T10:06:14;20.10;99.90
21602;DHT22;10963;50.934;4.668;2023-05-07T10:08:41;20.00;99.90
21602;DHT22;10963;50.934;4.668;2023-05-07T10:11:10;20.00;99.90
21602;DHT22;10963;50.934;4.668;2023-05-07T10:13:40;20.10;99.90
21602;DHT22;10963;50.934;4.668;2023-05-07T10:16:06;20.20;99.90
21602;DHT22;10963;50.934;4.668;2023-05-07T10:18:33;20.30;99.90
21602;DHT22;10963;50.934;4.668;2023-05-07T10:21:07;20.40;99.90
21602;DHT22;10963;50.934;4.668;2023-05-07T10:23:33;20.40;99.90
21602;DHT22;10963;50.934;4.668;2023-05-07T10:26:02;20.40;99.90
21602;DHT22;10963;50.934;4.668;2023-05-07T10:28:37;20.30;99.90
21602;DHT22;10963;50.934;4.668;2023-05-07T10:33:51;20.20;99.90
21602;DHT22;10963;50.934;4.668;2023-05-07T10:36:20;20.10;99.90
21602;DHT22;10963;50.934;4.668;2023-05-07T10:38:49;19.90;99.90
21602;DHT22;10963;50.934;4.668;2023-05-07T10:41:15;19.70;99.90
21602;DHT22;10963;50.934;4.668;2023-05-07T10:43:43;19.70;99.90
21602;DHT22;10963;50.934;4.668;2023-05-07T10:46:11;19.80;99.90
21602;DHT22;10963;50.934;4.668;2023-05-07T10:49:12;19.80;99.90
21602;DHT22;10963;50.934;4.668;2023-05-07T10:51:41;20.00;99.90
21602;DHT22;10963;50.934;4.668;2023-05-07T10:56:37;20.00;99.90
21602;DHT22;10963;50.934;4.668;2023-05-07T11:04:25;20.20;99.90
21602;DHT22;10963;50.934;4.668;2023-05-07T11:10:00;20.20;99.90
21602;DHT22;10963;50.934;4.668;2023-05-07T11:15:10;20.30;99.90
21602;DHT22;10963;50.934;4.668;2023-05-07T11:17:53;20.30;99.90
21602;DHT22;10963;50.934;4.668;2023-05-07T11:20:19;20.30;99.90
21602;DHT22;10963;50.934;4.668;2023-05-07T11:22:48;20.40;99.90
21602;DHT22;10963;50.934;4.668;2023-05-07T11:25:18;20.10;99.90
21602;DHT22;10963;50.934;4.668;2023-05-07T11:27:45;19.90;99.90
21602;DHT22;10963;50.934;4.668;2023-05-07T11:30:17;19.90;99.90
21602;DHT22;10963;50.934;4.668;2023-05-07T11:32:47;19.80;99.90
21602;DHT22;10963;50.934;4.668;2023-05-07T11:35:15;19.80;99.90
21602;DHT22;10963;50.934;4.668;2023-05-07T11:37:44;19.80;99.90
21602;DHT22;10963;50.934;4.668;2023-05-07T11:40:13;19.90;99.90
21602;DHT22;10963;50.934;4.668;2023-05-07T11:42:44;19.90;99.90
21602;DHT22;10963;50.934;4.668;2023-05-07T11:45:09;19.90;99.90
21602;DHT22;10963;50.934;4.668;2023-05-07T11:47:38;20.00;99.90
21602;DHT22;10963;50.934;4.668;2023-05-07T11:50:05;20.00;99.90
21602;DHT22;10963;50.934;4.668;2023-05-07T11:52:33;20.00;99.90
21602;DHT22;10963;50.934;4.668;2023-05-07T11:55:02;19.90;99.90
21602;DHT22;10963;50.934;4.668;2023-05-07T11:57:30;20.00;99.90
21602;DHT22;10963;50.934;4.668;2023-05-07T11:59:56;20.00;99.90
21602;DHT22;10963;50.934;4.668;2023-05-07T12:02:23;20.20;99.90
21602;DHT22;10963;50.934;4.668;2023-05-07T12:04:52;19.90;99.90
21602;DHT22;10963;50.934;4.668;2023-05-07T12:07:18;19.90;99.90
21602;DHT22;10963;50.934;4.668;2023-05-07T12:09:45;19.70;99.90
21602;DHT22;10963;50.934;4.668;2023-05-07T12:12:12;19.90;99.90
21602;DHT22;10963;50.934;4.668;2023-05-07T12:14:44;20.00;99.90
21602;DHT22;10963;50.934;4.668;2023-05-07T12:17:11;20.10;99.90
21602;DHT22;10963;50.934;4.668;2023-05-07T12:19:41;20.30;99.90
21602;DHT22;10963;50.934;4.668;2023-05-07T12:22:08;20.60;99.90
21602;DHT22;10963;50.934;4.668;2023-05-07T12:27:15;21.10;99.90
21602;DHT22;10963;50.934;4.668;2023-05-07T12:29:48;21.40;99.90
21602;DHT22;10963;50.934;4.668;2023-05-07T12:32:20;21.60;99.90
21602;DHT22;10963;50.934;4.668;2023-05-07T12:34:52;21.80;99.90
21602;DHT22;10963;50.934;4.668;2023-05-07T12:37:24;21.90;99.90
21602;DHT22;10963;50.934;4.668;2023-05-07T12:40:10;22.00;99.90
21602;DHT22;10963;50.934;4.668;2023-05-07T12:42:37;21.70;99.90
21602;DHT22;10963;50.934;4.668;2023-05-07T12:47:35;21.80;99.90
21602;DHT22;10963;50.934;4.668;2023-05-07T12:50:04;21.70;99.90
21602;DHT22;10963;50.934;4.668;2023-05-07T12:52:30;21.50;99.90
21602;DHT22;10963;50.934;4.668;2023-05-07T12:55:07;21.70;99.90
21602;DHT22;10963;50.934;4.668;2023-05-07T12:57:45;21.50;99.90
21602;DHT22;10963;50.934;4.668;2023-05-07T13:00:13;21.80;99.90
21602;DHT22;10963;50.934;4.668;2023-05-07T13:02:45;22.10;99.90
21602;DHT22;10963;50.934;4.668;2023-05-07T13:05:11;22.20;99.90
21602;DHT22;10963;50.934;4.668;2023-05-07T13:07:37;22.30;99.90
21602;DHT22;10963;50.934;4.668;2023-05-07T13:10:03;22.00;99.90
21602;DHT22;10963;50.934;4.668;2023-05-07T13:12:29;21.70;99.90
21602;DHT22;10963;50.934;4.668;2023-05-07T13:14:57;21.70;99.90
21602;DHT22;10963;50.934;4.668;2023-05-07T13:17:25;21.50;99.90
21602;DHT22;10963;50.934;4.668;2023-05-07T13:19:53;21.30;99.90
21602;DHT22;10963;50.934;4.668;2023-05-07T13:22:21;21.30;99.90
21602;DHT22;10963;50.934;4.668;2023-05-07T13:24:46;21.10;99.90
21602;DHT22;10963;50.934;4.668;2023-05-07T13:27:12;21.10;99.90
21602;DHT22;10963;50.934;4.668;2023-05-07T13:29:38;21.20;99.90
21602;DHT22;10963;50.934;4.668;2023-05-07T13:32:06;21.00;99.90
21602;DHT22;10963;50.934;4.668;2023-05-07T13:34:31;20.80;99.90
21602;DHT22;10963;50.934;4.668;2023-05-07T13:36:59;21.00;99.90
21602;DHT22;10963;50.934;4.668;2023-05-07T13:39:25;21.40;99.90
21602;DHT22;10963;50.934;4.668;2023-05-07T13:41:51;21.30;99.90
21602;DHT22;10963;50.934;4.668;2023-05-07T13:44:16;21.50;99.90
21602;DHT22;10963;50.934;4.668;2023-05-07T13:46:42;21.80;99.90
21602;DHT22;10963;50.934;4.668;2023-05-07T13:49:12;22.20;99.90
21602;DHT22;10963;50.934;4.668;2023-05-07T13:51:38;22.30;99.90
21602;DHT22;10963;50.934;4.668;2023-05-07T13:54:04;22.30;99.90
21602;DHT22;10963;50.934;4.668;2023-05-07T13:56:29;22.40;99.90
21602;DHT22;10963;50.934;4.668;2023-05-07T13:59:00;22.70;99.90
21602;DHT22;10963;50.934;4.668;2023-05-07T14:01:28;23.00;99.90
21602;DHT22;10963;50.934;4.668;2023-05-07T14:03:54;23.00;99.90
21602;DHT22;10963;50.934;4.668;2023-05-07T14:06:20;22.90;99.90
21602;DHT22;10963;50.934;4.668;2023-05-07T14:08:47;22.90;99.90
21602;DHT22;10963;50.934;4.668;2023-05-07T14:11:12;22.80;99.90
21602;DHT22;10963;50.934;4.668;2023-05-07T14:13:38;22.80;99.90
21602;DHT22;10963;50.934;4.668;2023-05-07T14:16:04;22.70;99.90
21602;DHT22;10963;50.934;4.668;2023-05-07T14:18:30;22.50;99.90
21602;DHT22;10963;50.934;4.668;2023-05-07T14:20:56;22.40;99.90
21602;DHT22;10963;50.934;4.668;2023-05-07T14:23:21;22.30;99.90
21602;DHT22;10963;50.934;4.668;2023-05-07T14:25:52;22.10;99.90
21602;DHT22;10963;50.934;4.668;2023-05-07T14:28:18;22.00;99.90
21602;DHT22;10963;50.934;4.668;2023-05-07T14:30:44;21.90;99.90
21602;DHT22;10963;50.934;4.668;2023-05-07T14:33:10;21.90;99.90
21602;DHT22;10963;50.934;4.668;2023-05-07T14:35:36;21.90;99.90
21602;DHT22;10963;50.934;4.668;2023-05-07T14:38:02;22.00;99.90
21602;DHT22;10963;50.934;4.668;2023-05-07T14:40:27;21.90;99.90
21602;DHT22;10963;50.934;4.668;2023-05-07T14:42:53;21.80;99.90
21602;DHT22;10963;50.934;4.668;2023-05-07T14:45:23;21.80;99.90
21602;DHT22;10963;50.934;4.668;2023-05-07T14:47:49;21.70;99.90
21602;DHT22;10963;50.934;4.668;2023-05-07T14:50:17;21.50;99.90
21602;DHT22;10963;50.934;4.668;2023-05-07T14:52:43;21.40;99.90
21602;DHT22;10963;50.934;4.668;2023-05-07T14:55:12;21.30;99.90
21602;DHT22;10963;50.934;4.668;2023-05-07T14:57:37;21.30;99.90
21602;DHT22;10963;50.934;4.668;2023-05-07T15:00:06;21.30;99.90
21602;DHT22;10963;50.934;4.668;2023-05-07T15:02:32;21.50;99.90
21602;DHT22;10963;50.934;4.668;2023-05-07T15:05:00;21.70;99.90
21602;DHT22;10963;50.934;4.668;2023-05-07T15:07:26;21.70;99.90
21602;DHT22;10963;50.934;4.668;2023-05-07T15:09:52;21.90;99.90
21602;DHT22;10963;50.934;4.668;2023-05-07T15:12:18;22.10;99.90
21602;DHT22;10963;50.934;4.668;2023-05-07T15:14:46;22.10;99.90
21602;DHT22;10963;50.934;4.668;2023-05-07T15:17:14;22.30;99.90
21602;DHT22;10963;50.934;4.668;2023-05-07T15:19:40;22.40;99.90
21602;DHT22;10963;50.934;4.668;2023-05-07T15:22:08;22.40;99.90
21602;DHT22;10963;50.934;4.668;2023-05-07T15:24:36;22.50;99.90
21602;DHT22;10963;50.934;4.668;2023-05-07T15:27:04;22.50;99.90
21602;DHT22;10963;50.934;4.668;2023-05-07T15:29:32;22.20;99.90
21602;DHT22;10963;50.934;4.668;2023-05-07T15:31:58;22.20;99.90
21602;DHT22;10963;50.934;4.668;2023-05-07T15:34:24;22.20;99.90
21602;DHT22;10963;50.934;4.668;2023-05-07T15:36:50;22.10;99.90
21602;DHT22;10963;50.934;4.668;2023-05-07T15:39:15;22.10;99.90
21602;DHT22;10963;50.934;4.668;2023-05-07T15:41:41;22.10;99.90
21602;DHT22;10963;50.934;4.668;2023-05-07T15:44:07;21.90;99.90
21602;DHT22;10963;50.934;4.668;2023-05-07T15:46:32;21.80;99.90
21602;DHT22;10963;50.934;4.668;2023-05-07T15:49:02;21.80;99.90
21602;DHT22;10963;50.934;4.668;2023-05-07T15:51:35;21.70;99.90
21602;DHT22;10963;50.934;4.668;2023-05-07T15:54:03;21.80;99.90
21602;DHT22;10963;50.934;4.668;2023-05-07T15:56:29;21.70;99.90